Tamara — HOEH — position and weather

sailwx.info

Track history (hours):
 
Tides and Currents Weather Stations Pressure Air Temp Water Temp Dewpoint Dewpoint Depression Visibility Wind Speed Wind Dir Waves Ship Positions

Tamara

Last reported at 2018-Jul-22 13:23 UTC. Time now 2018-Jul-23 11:55 UTC.
Position N 34°40' E 033°55'.

Length 117 m; draft 6.5 m.

Type: Ship (hazmat cat A). MMSI: 353900000.

Date/timePositionNaut miles runAvg speedWind from/ knotsBaromVisibWave heightAir tempDewpointWater temp
2018-Jul-22 13:23N 34°40' E 033°55'1 1.4
2018-Jul-22 12:53N 34°40' E 033°54'8 1.3
2018-Jul-22 06:43N 34°37' E 033°44'0 1.3
2018-Jul-22 06:30N 34°37' E 033°44'  
2018-Jul-18 00:10N 34°29' E 035°22'3913.1
2018-Jul-17 21:12N 34°26' E 034°35'313.3
2018-Jul-17 20:59N 34°26' E 034°31'32 9.2
2018-Jul-17 17:33N 34°24' E 033°53'113.5
2018-Jul-17 17:30N 34°24' E 033°52'1613.5
2018-Jul-17 16:20N 34°24' E 033°33'813.4
2018-Jul-17 15:46N 34°25' E 033°24'413.3
2018-Jul-17 15:28N 34°24' E 033°19'613.4
2018-Jul-17 15:00N 34°24' E 033°12'4113.5
2018-Jul-17 11:58N 34°39' E 032°25'1013.2
2018-Jul-17 11:10N 34°40' E 032°13'213.8
2018-Jul-17 11:00N 34°40' E 032°10'  
Track history (hours):
 
Tides and Currents Weather Stations Pressure Air Temp Water Temp Dewpoint Dewpoint Depression Visibility Wind Speed Wind Dir Waves Ship Positions

Tamara

Last reported at 2018-Jul-22 13:23 UTC. Time now 2018-Jul-23 11:55 UTC.
Position N 34°40' E 033°55'.

Length 117 m; draft 6.5 m.

Type: Ship (hazmat cat A). MMSI: 353900000.

Date/timePositionNaut miles runAvg speedWind from/ knotsBaromVisibWave heightAir tempDewpointWater temp
2018-Jul-22 13:23N 34°40' E 033°55'1 1.4
2018-Jul-22 12:53N 34°40' E 033°54'8 1.3
2018-Jul-22 06:43N 34°37' E 033°44'0 1.3
2018-Jul-22 06:30N 34°37' E 033°44'  
2018-Jul-18 00:10N 34°29' E 035°22'3913.1
2018-Jul-17 21:12N 34°26' E 034°35'313.3
2018-Jul-17 20:59N 34°26' E 034°31'32 9.2
2018-Jul-17 17:33N 34°24' E 033°53'113.5
2018-Jul-17 17:30N 34°24' E 033°52'1613.5
2018-Jul-17 16:20N 34°24' E 033°33'813.4
2018-Jul-17 15:46N 34°25' E 033°24'413.3
2018-Jul-17 15:28N 34°24' E 033°19'613.4
2018-Jul-17 15:00N 34°24' E 033°12'4113.5
2018-Jul-17 11:58N 34°39' E 032°25'1013.2
2018-Jul-17 11:10N 34°40' E 032°13'213.8
2018-Jul-17 11:00N 34°40' E 032°10'  

Dump ship's entire track history